createdAt,value
2022-11-08T00:03:33.843Z,9.80
2022-11-08T00:08:44.871Z,9.80
2022-11-08T00:13:55.857Z,9.80
2022-11-08T00:18:48.249Z,9.70
2022-11-08T00:23:40.645Z,9.60
2022-11-08T00:28:33.012Z,9.50
2022-11-08T00:33:25.944Z,9.50
2022-11-08T00:38:18.442Z,9.60
2022-11-08T00:43:11.689Z,9.60
2022-11-08T00:48:04.049Z,9.50
2022-11-08T00:52:56.377Z,9.40
2022-11-08T00:58:03.657Z,9.40
2022-11-08T01:03:26.463Z,9.50
2022-11-08T01:08:20.713Z,9.60
2022-11-08T01:13:15.598Z,9.70
2022-11-08T01:18:09.263Z,9.80
2022-11-08T01:23:01.472Z,9.70
2022-11-08T01:27:53.715Z,9.60
2022-11-08T01:32:46.039Z,9.50
2022-11-08T01:37:38.294Z,9.50
2022-11-08T01:42:31.968Z,9.40
2022-11-08T01:47:24.266Z,9.30
2022-11-08T01:52:30.533Z,9.10
2022-11-08T01:57:31.126Z,9.00
2022-11-08T02:02:23.778Z,8.80
2022-11-08T02:07:17.799Z,8.70
2022-11-08T02:12:12.528Z,8.60
2022-11-08T02:17:07.497Z,8.50
2022-11-08T02:22:06.135Z,8.40
2022-11-08T02:26:59.493Z,8.20
2022-11-08T02:31:52.220Z,8.30
2022-11-08T02:36:48.166Z,8.30
2022-11-08T02:41:40.502Z,8.30
2022-11-08T02:46:33.059Z,8.30
2022-11-08T02:51:25.413Z,8.30
2022-11-08T02:56:17.676Z,8.20
2022-11-08T03:01:10.939Z,8.10
2022-11-08T03:06:04.399Z,8.10
2022-11-08T03:10:56.758Z,8.10
2022-11-08T03:15:49.201Z,8.00
2022-11-08T03:20:41.645Z,7.90
2022-11-08T03:25:35.171Z,7.80
2022-11-08T03:30:27.648Z,7.80
2022-11-08T03:35:20.609Z,7.90
2022-11-08T03:40:12.844Z,7.90
2022-11-08T03:45:05.651Z,7.80
2022-11-08T03:49:58.028Z,7.60
2022-11-08T03:54:50.455Z,7.60
2022-11-08T03:59:42.796Z,7.50
2022-11-08T04:04:36.081Z,7.40
2022-11-08T04:09:28.373Z,7.40
2022-11-08T04:14:39.066Z,7.50
2022-11-08T04:19:49.715Z,7.60
2022-11-08T04:24:42.111Z,7.50
2022-11-08T04:29:34.404Z,7.40
2022-11-08T04:34:26.745Z,7.30
2022-11-08T04:39:20.059Z,7.30
2022-11-08T04:44:12.456Z,7.30
2022-11-08T04:49:04.657Z,7.30
2022-11-08T04:53:58.961Z,7.20
2022-11-08T04:58:53.614Z,7.10
2022-11-08T05:03:47.469Z,7.10
2022-11-08T05:08:40.601Z,7.00
2022-11-08T05:13:33.416Z,6.90
2022-11-08T05:18:29.128Z,6.90
2022-11-08T05:23:24.218Z,6.80
2022-11-08T05:28:17.173Z,6.80
2022-11-08T05:33:15.845Z,6.80
2022-11-08T05:38:08.223Z,6.70
2022-11-08T05:43:00.576Z,6.80
2022-11-08T05:47:52.960Z,6.70
2022-11-08T05:52:45.166Z,6.60
2022-11-08T05:57:42.698Z,6.60
2022-11-08T06:02:35.006Z,6.70
2022-11-08T06:07:27.308Z,6.70
2022-11-08T06:12:20.737Z,6.80
2022-11-08T06:17:14.976Z,7.10
2022-11-08T06:22:07.177Z,7.20
2022-11-08T06:26:59.632Z,7.30
2022-11-08T06:31:52.105Z,7.50
2022-11-08T06:36:44.536Z,7.50
2022-11-08T06:41:36.788Z,7.50
2022-11-08T06:46:29.217Z,7.60
2022-11-08T06:51:23.933Z,7.70
2022-11-08T06:56:16.299Z,8.10
2022-11-08T07:01:10.981Z,8.30
2022-11-08T07:06:04.734Z,8.60
2022-11-08T07:10:56.968Z,8.90
2022-11-08T07:15:49.475Z,9.00
2022-11-08T07:20:42.815Z,9.30
2022-11-08T07:25:35.553Z,9.40
2022-11-08T07:30:29.038Z,10.00
2022-11-08T07:35:21.887Z,13.10
2022-11-08T07:40:14.646Z,16.40
2022-11-08T07:45:08.733Z,17.20
2022-11-08T07:50:01.095Z,16.00
2022-11-08T07:54:53.520Z,14.50
2022-11-08T07:59:45.774Z,13.20
2022-11-08T08:04:39.341Z,12.50
2022-11-08T08:09:34.630Z,12.00
2022-11-08T08:14:29.911Z,11.90
2022-11-08T08:19:22.235Z,11.70
2022-11-08T08:24:14.974Z,11.80
2022-11-08T08:29:10.104Z,12.60
2022-11-08T08:34:03.097Z,13.20
2022-11-08T08:38:58.173Z,13.50
2022-11-08T08:43:50.422Z,13.90
2022-11-08T08:48:42.776Z,14.20
2022-11-08T08:53:36.419Z,14.10
2022-11-08T08:58:28.655Z,14.70
2022-11-08T09:03:21.381Z,14.90
2022-11-08T09:08:14.761Z,17.60
2022-11-08T09:13:07.252Z,18.80
2022-11-08T09:17:59.877Z,18.60
2022-11-08T09:22:52.230Z,18.30
2022-11-08T09:27:44.445Z,18.10
2022-11-08T09:32:59.268Z,18.00
2022-11-08T09:37:50.558Z,20.00
2022-11-08T09:42:57.538Z,21.40
2022-11-08T09:47:56.263Z,21.20
2022-11-08T09:53:01.101Z,22.50
2022-11-08T09:58:04.431Z,23.90
2022-11-08T10:02:57.089Z,23.80
2022-11-08T10:07:53.532Z,22.50
2022-11-08T10:13:00.674Z,23.60
2022-11-08T10:18:31.993Z,22.90
2022-11-08T10:23:46.562Z,23.60
2022-11-08T10:28:45.125Z,23.50
2022-11-08T10:33:46.368Z,24.40
2022-11-08T10:39:14.116Z,24.90
2022-11-08T10:44:33.567Z,24.80
2022-11-08T10:49:26.971Z,24.20
2022-11-08T10:54:48.908Z,25.00
2022-11-08T10:59:42.049Z,25.20
2022-11-08T11:04:35.102Z,25.30
2022-11-08T11:09:29.622Z,26.00
2022-11-08T11:14:23.184Z,25.00
2022-11-08T11:25:59.025Z,22.70
2022-11-08T11:31:02.409Z,22.50
2022-11-08T11:36:12.206Z,23.00
2022-11-08T11:41:15.344Z,22.40
2022-11-08T11:53:00.771Z,20.90
2022-11-08T12:10:20.009Z,19.10
2022-11-08T12:15:36.115Z,19.00
2022-11-08T12:20:34.870Z,18.60
2022-11-08T12:25:37.817Z,18.50
2022-11-08T12:30:49.642Z,18.40
2022-11-08T12:36:02.068Z,18.30
2022-11-08T12:41:09.258Z,18.10
2022-11-08T12:46:20.890Z,18.20
2022-11-08T12:51:34.714Z,18.00
2022-11-08T12:56:35.230Z,18.00
2022-11-08T13:01:27.606Z,18.00
2022-11-08T13:06:41.757Z,17.70
2022-11-08T13:11:39.909Z,17.70
2022-11-08T13:16:45.072Z,17.60
2022-11-08T13:21:40.043Z,17.40
2022-11-08T13:26:42.006Z,17.10
2022-11-08T13:31:41.842Z,17.00
2022-11-08T13:36:42.734Z,16.70
2022-11-08T13:42:23.737Z,16.60
2022-11-08T13:47:34.307Z,16.40
2022-11-08T13:52:46.435Z,16.30
2022-11-08T13:58:00.662Z,16.10
2022-11-08T14:09:50.564Z,15.70
2022-11-08T14:14:56.344Z,15.40
2022-11-08T14:19:48.906Z,15.30
2022-11-08T14:24:41.593Z,15.20
2022-11-08T14:29:35.876Z,15.20
2022-11-08T14:34:31.333Z,15.20
2022-11-08T14:39:30.863Z,15.20
2022-11-08T14:44:24.081Z,15.10
2022-11-08T14:49:20.936Z,15.10
2022-11-08T14:54:29.826Z,14.90
2022-11-08T14:59:25.176Z,14.80
2022-11-08T15:04:22.676Z,14.60
2022-11-08T15:09:36.051Z,14.50
2022-11-08T15:14:32.692Z,14.30
2022-11-08T15:19:42.748Z,14.10
2022-11-08T15:24:44.350Z,13.90
2022-11-08T15:29:50.471Z,13.80
2022-11-08T15:34:45.986Z,13.80
2022-11-08T15:39:40.274Z,13.60
2022-11-08T15:44:32.640Z,13.50
2022-11-08T15:49:29.408Z,13.50
2022-11-08T15:54:24.059Z,13.50
2022-11-08T15:59:21.468Z,13.30
2022-11-08T16:04:14.412Z,13.20
2022-11-08T16:09:06.665Z,13.10
2022-11-08T16:13:59.005Z,12.90
2022-11-08T16:18:51.374Z,12.90
2022-11-08T16:23:47.858Z,12.70
2022-11-08T16:28:43.554Z,12.60
2022-11-08T16:33:37.278Z,12.50
2022-11-08T16:38:40.064Z,12.50
2022-11-08T16:43:33.292Z,12.50
2022-11-08T16:48:29.093Z,12.40
2022-11-08T16:53:25.996Z,12.30
2022-11-08T16:58:18.529Z,12.40
2022-11-08T17:03:22.942Z,12.40
2022-11-08T17:08:15.931Z,12.30
2022-11-08T17:13:15.313Z,12.30
2022-11-08T17:18:07.729Z,12.50
2022-11-08T17:23:00.117Z,12.70
2022-11-08T17:27:56.398Z,12.80
2022-11-08T17:32:49.399Z,12.70
2022-11-08T17:37:45.103Z,12.70
2022-11-08T17:42:43.610Z,12.70
2022-11-08T17:47:38.994Z,12.40
2022-11-08T17:52:31.544Z,12.20
2022-11-08T17:57:23.956Z,12.10
2022-11-08T18:02:18.906Z,12.00
2022-11-08T18:07:11.350Z,11.90
2022-11-08T18:12:09.295Z,11.90
2022-11-08T18:17:08.363Z,12.00
2022-11-08T18:22:04.830Z,12.10
2022-11-08T18:27:01.435Z,12.00
2022-11-08T18:31:56.595Z,12.10
2022-11-08T18:36:51.097Z,12.20
2022-11-08T18:41:53.015Z,12.30
2022-11-08T18:46:46.004Z,12.30
2022-11-08T18:51:38.577Z,12.40
2022-11-08T18:56:39.694Z,12.40
2022-11-08T19:01:34.869Z,12.50
2022-11-08T19:06:30.656Z,12.60
2022-11-08T19:11:23.325Z,12.70
2022-11-08T19:16:21.487Z,12.70
2022-11-08T19:21:23.362Z,12.80
2022-11-08T19:34:09.826Z,12.90
2022-11-08T19:39:12.866Z,12.80
2022-11-08T19:44:06.717Z,12.80
2022-11-08T19:49:05.707Z,12.80
2022-11-08T19:54:10.892Z,12.90
2022-11-08T19:59:09.312Z,12.80
2022-11-08T20:04:10.222Z,12.90
2022-11-08T20:09:08.697Z,13.00
2022-11-08T20:14:03.787Z,13.00
2022-11-08T20:19:14.938Z,13.00
2022-11-08T20:24:12.297Z,13.00
2022-11-08T20:29:06.409Z,13.00
2022-11-08T20:34:02.944Z,12.90
2022-11-08T20:38:59.056Z,12.80
2022-11-08T20:50:40.415Z,12.50
2022-11-08T20:55:36.205Z,12.30
2022-11-08T21:00:52.104Z,12.20
2022-11-08T21:05:51.109Z,12.00
2022-11-08T21:10:47.666Z,12.00
2022-11-08T21:15:47.339Z,12.10
2022-11-08T21:20:39.750Z,12.10
2022-11-08T21:25:33.606Z,12.30
2022-11-08T21:30:29.137Z,12.40
2022-11-08T21:35:22.726Z,12.40
2022-11-08T21:40:15.016Z,12.40
2022-11-08T21:45:08.260Z,12.60
2022-11-08T21:50:03.233Z,12.80
2022-11-08T21:54:55.470Z,12.80
2022-11-08T22:06:17.468Z,13.00
2022-11-08T22:11:09.657Z,13.00
2022-11-08T22:16:01.843Z,13.00
2022-11-08T22:21:12.475Z,13.00
2022-11-08T22:26:06.180Z,12.90
2022-11-08T22:36:01.962Z,12.90
2022-11-08T22:40:54.186Z,12.80
2022-11-08T22:45:47.409Z,12.80
2022-11-08T22:50:39.665Z,12.80
2022-11-08T22:55:31.986Z,12.90
2022-11-08T23:00:24.567Z,12.90
2022-11-08T23:05:19.682Z,12.80
2022-11-08T23:10:12.402Z,12.80
2022-11-08T23:15:27.314Z,12.80
2022-11-08T23:20:37.892Z,12.90
2022-11-08T23:25:31.647Z,12.90
2022-11-08T23:30:42.138Z,13.00
2022-11-08T23:35:36.011Z,12.90
2022-11-08T23:40:46.547Z,12.90
2022-11-08T23:45:38.705Z,12.90
2022-11-08T23:50:30.877Z,12.80
2022-11-08T23:55:24.035Z,12.70
